createdAt,value
2023-04-15T00:01:24.105Z,99471.91
2023-04-15T00:06:26.399Z,99469.16
2023-04-15T00:11:28.952Z,99470.81
2023-04-15T00:16:31.491Z,99479.00
2023-04-15T00:21:49.165Z,99480.63
2023-04-15T00:26:51.407Z,99488.00
2023-04-15T00:31:53.595Z,99482.81
2023-04-15T00:36:55.832Z,99483.37
2023-04-15T00:41:58.116Z,99477.38
2023-04-15T00:47:02.059Z,99474.09
2023-04-15T00:52:04.462Z,99476.00
2023-04-15T00:57:07.234Z,99471.34
2023-04-15T01:02:09.537Z,99469.97
2023-04-15T01:07:12.095Z,99472.44
2023-04-15T01:12:18.486Z,99464.00
2023-04-15T01:17:21.082Z,99446.22
2023-04-15T01:22:24.372Z,99451.69
2023-04-15T01:27:26.643Z,99452.22
2023-04-15T01:32:29.334Z,99452.50
2023-04-15T01:37:33.494Z,99461.50
2023-04-15T01:42:36.876Z,99462.88
2023-04-15T01:47:39.409Z,99462.63
2023-04-15T01:52:44.309Z,99464.25
2023-04-15T01:57:46.719Z,99466.16
2023-04-15T02:02:49.559Z,99471.09
2023-04-15T02:07:52.270Z,99474.87
2023-04-15T02:12:57.320Z,99468.06
2023-04-15T02:18:00.960Z,99470.78
2023-04-15T02:23:03.250Z,99466.69
2023-04-15T02:28:06.492Z,99473.78
2023-04-15T02:33:08.733Z,99466.13
2023-04-15T02:38:11.636Z,99466.41
2023-04-15T02:43:13.813Z,99489.91
2023-04-15T02:48:18.116Z,99479.81
2023-04-15T02:53:20.850Z,99483.63
2023-04-15T02:58:23.049Z,99483.09
2023-04-15T03:03:25.346Z,99483.34
2023-04-15T03:08:27.573Z,99473.22
2023-04-15T03:13:29.782Z,99471.59
2023-04-15T03:18:31.947Z,99474.03
2023-04-15T03:23:34.061Z,99466.94
2023-04-15T03:28:36.569Z,99467.72
2023-04-15T03:33:38.729Z,99469.63
2023-04-15T03:38:41.091Z,99465.22
2023-04-15T03:43:43.330Z,99468.81
2023-04-15T03:48:45.526Z,99469.91
2023-04-15T03:53:47.724Z,99473.16
2023-04-15T03:58:49.838Z,99472.34
2023-04-15T04:03:52.528Z,99470.41
2023-04-15T04:08:54.819Z,99466.87
2023-04-15T04:13:56.922Z,99468.00
2023-04-15T04:18:59.381Z,99464.72
2023-04-15T04:24:01.796Z,99464.19
2023-04-15T04:29:04.123Z,99462.00
2023-04-15T04:34:06.640Z,99459.75
2023-04-15T04:39:09.017Z,99463.31
2023-04-15T04:44:11.186Z,99462.16
2023-04-15T04:49:13.326Z,99463.22
2023-04-15T04:54:16.244Z,99461.75
2023-04-15T04:59:19.494Z,99464.94
2023-04-15T05:04:21.758Z,99465.59
2023-04-15T05:09:26.619Z,99465.69
2023-04-15T05:14:28.745Z,99466.06
2023-04-15T05:19:30.979Z,99463.12
2023-04-15T05:24:33.132Z,99461.50
2023-04-15T05:29:35.266Z,99458.47
2023-04-15T05:34:38.718Z,99461.97
2023-04-15T05:39:40.896Z,99469.91
2023-04-15T05:44:43.222Z,99467.44
2023-04-15T05:49:45.535Z,99465.53
2023-04-15T05:54:47.712Z,99489.06
2023-04-15T05:59:52.410Z,99477.88
2023-04-15T06:04:54.641Z,99486.47
2023-04-15T06:09:57.022Z,99491.28
2023-04-15T06:15:00.513Z,99495.91
2023-04-15T06:20:03.677Z,99500.59
2023-04-15T06:25:08.211Z,99500.81
2023-04-15T06:30:10.819Z,99509.66
2023-04-15T06:35:13.034Z,99516.84
2023-04-15T06:40:15.354Z,99516.72
2023-04-15T06:45:18.838Z,99516.06
2023-04-15T06:50:21.001Z,99526.50
2023-04-15T06:55:23.256Z,99531.75
2023-04-15T07:00:25.659Z,99527.75
2023-04-15T07:05:28.126Z,99524.50
2023-04-15T07:10:30.705Z,99531.38
2023-04-15T07:15:33.607Z,99531.84
2023-04-15T07:20:36.336Z,99529.41
2023-04-15T07:25:38.580Z,99520.25
2023-04-15T07:30:41.664Z,99530.94
2023-04-15T07:35:44.132Z,99545.34
2023-04-15T07:40:46.937Z,99526.44
2023-04-15T07:45:49.154Z,99527.78
2023-04-15T07:50:51.682Z,99540.25
2023-04-15T07:55:53.970Z,99536.00
2023-04-15T08:00:56.289Z,99528.97
2023-04-15T08:06:01.115Z,99525.56
2023-04-15T08:11:03.308Z,99527.91
2023-04-15T08:16:18.665Z,99541.97
2023-04-15T08:21:21.090Z,99532.09
2023-04-15T08:26:23.525Z,99529.59
2023-04-15T08:31:29.896Z,99546.50
2023-04-15T08:36:32.622Z,99534.19
2023-04-15T08:41:41.286Z,99548.28
2023-04-15T08:46:44.772Z,99556.88
2023-04-15T08:51:47.743Z,99550.22
2023-04-15T08:56:50.864Z,99545.75
2023-04-15T09:01:53.601Z,99568.69
2023-04-15T09:06:57.602Z,99555.16
2023-04-15T09:12:01.646Z,99554.62
2023-04-15T09:17:04.798Z,99557.56
2023-04-15T09:22:07.106Z,99548.28
2023-04-15T09:27:09.387Z,99557.00
2023-04-15T09:32:15.684Z,99555.28
2023-04-15T09:37:31.756Z,99552.69
2023-04-15T09:42:34.668Z,99550.03
2023-04-15T09:47:37.126Z,99556.31
2023-04-15T09:52:43.976Z,99548.81
2023-04-15T09:57:49.565Z,99561.56
2023-04-15T10:02:52.354Z,99559.59
2023-04-15T10:07:54.979Z,99552.91
2023-04-15T10:12:57.356Z,99556.19
2023-04-15T10:18:01.511Z,99563.94
2023-04-15T10:23:04.345Z,99569.28
2023-04-15T10:28:09.009Z,99572.34
2023-04-15T10:33:11.586Z,99573.91
2023-04-15T10:38:39.193Z,99579.38
2023-04-15T10:44:25.167Z,99577.19
2023-04-15T10:49:27.561Z,99584.25
2023-04-15T10:54:29.657Z,99582.78
2023-04-15T10:59:32.688Z,99590.28
2023-04-15T11:04:54.016Z,99587.13
2023-04-15T11:09:56.590Z,99597.09
2023-04-15T11:14:58.857Z,99595.06
2023-04-15T11:20:01.391Z,99605.03
2023-04-15T11:25:04.609Z,99614.03
2023-04-15T11:30:27.100Z,99608.91
2023-04-15T11:35:30.705Z,99607.50
2023-04-15T11:40:36.433Z,99606.81
2023-04-15T11:45:53.039Z,99591.41
2023-04-15T11:51:10.097Z,99598.34
2023-04-15T11:56:30.809Z,99608.19
2023-04-15T12:01:39.379Z,99617.34
2023-04-15T12:06:41.898Z,99613.97
2023-04-15T12:11:44.046Z,99627.56
2023-04-15T12:16:52.659Z,99611.38
2023-04-15T12:22:01.450Z,99612.59
2023-04-15T12:27:09.352Z,99600.69
2023-04-15T12:32:18.619Z,99619.97
2023-04-15T12:37:20.988Z,99627.66
2023-04-15T12:42:23.240Z,99623.31
2023-04-15T12:47:25.482Z,99627.81
2023-04-15T12:52:27.755Z,99632.25
2023-04-15T12:57:29.958Z,99635.78
2023-04-15T13:02:32.438Z,99644.22
2023-04-15T13:07:34.767Z,99651.91
2023-04-15T13:12:37.430Z,99643.56
2023-04-15T13:17:39.668Z,99646.53
2023-04-15T13:22:42.637Z,99647.19
2023-04-15T13:27:44.863Z,99646.44
2023-04-15T13:32:48.782Z,99643.25
2023-04-15T13:37:54.305Z,99648.84
2023-04-15T13:42:57.793Z,99657.00
2023-04-15T13:47:59.999Z,99649.44
2023-04-15T13:53:02.583Z,99654.59
2023-04-15T13:58:04.810Z,99655.63
2023-04-15T14:03:07.187Z,99660.38
2023-04-15T14:08:09.525Z,99666.69
2023-04-15T14:13:11.779Z,99677.03
2023-04-15T14:18:14.084Z,99669.72
2023-04-15T14:23:16.395Z,99668.44
2023-04-15T14:28:18.547Z,99673.19
2023-04-15T14:33:22.344Z,99683.38
2023-04-15T14:38:24.527Z,99685.31
2023-04-15T14:43:28.178Z,99690.34
2023-04-15T14:48:32.121Z,99703.41
2023-04-15T14:53:35.455Z,99698.78
2023-04-15T14:58:37.964Z,99701.47
2023-04-15T15:03:40.472Z,99703.69
2023-04-15T15:08:45.870Z,99697.69
2023-04-15T15:13:49.765Z,99704.72
2023-04-15T15:18:52.114Z,99704.94
2023-04-15T15:23:54.523Z,99717.59
2023-04-15T15:28:56.715Z,99719.22
2023-04-15T15:33:58.878Z,99724.13
2023-04-15T15:39:00.996Z,99730.00
2023-04-15T15:44:04.369Z,99739.91
2023-04-15T15:49:07.393Z,99746.16
2023-04-15T15:54:09.564Z,99750.84
2023-04-15T15:59:11.726Z,99757.87
2023-04-15T16:04:14.022Z,99760.34
2023-04-15T16:09:16.906Z,99769.44
2023-04-15T16:14:22.167Z,99768.28
2023-04-15T16:19:24.316Z,99762.03
2023-04-15T16:24:27.560Z,99769.50
2023-04-15T16:29:29.703Z,99792.06
2023-04-15T16:34:32.449Z,99787.91
2023-04-15T16:39:34.782Z,99789.72
2023-04-15T16:44:37.106Z,99788.88
2023-04-15T16:49:39.390Z,99790.19
2023-04-15T16:54:41.665Z,99802.69
2023-04-15T16:59:43.806Z,99814.28
2023-04-15T17:04:45.969Z,99820.38
2023-04-15T17:09:48.078Z,99822.59
2023-04-15T17:14:50.252Z,99836.75
2023-04-15T17:19:52.495Z,99845.94
2023-04-15T17:24:54.724Z,99844.66
2023-04-15T17:29:57.576Z,99852.12
2023-04-15T17:35:06.038Z,99858.25
2023-04-15T17:40:09.049Z,99867.44
2023-04-15T17:45:11.570Z,99872.63
2023-04-15T17:50:13.761Z,99866.69
2023-04-15T17:55:15.982Z,99874.44
2023-04-15T18:00:18.361Z,99892.41
2023-04-15T18:05:20.932Z,99892.69
2023-04-15T18:10:24.097Z,99897.41
2023-04-15T18:15:26.462Z,99905.66
2023-04-15T18:20:29.189Z,99909.78
2023-04-15T18:25:32.082Z,99908.97
2023-04-15T18:30:34.234Z,99925.75
2023-04-15T18:35:36.728Z,99938.16
2023-04-15T18:40:38.920Z,99942.00
2023-04-15T18:45:41.281Z,99952.19
2023-04-15T18:50:43.650Z,99954.97
2023-04-15T18:55:45.840Z,99968.94
2023-04-15T19:00:48.057Z,99976.31
2023-04-15T19:05:50.650Z,99988.94
2023-04-15T19:10:53.397Z,99982.91
2023-04-15T19:15:55.548Z,99997.69
2023-04-15T19:20:57.909Z,100013.56
2023-04-15T19:26:02.147Z,100013.03
2023-04-15T19:31:04.613Z,100017.69
2023-04-15T19:36:07.860Z,100026.72
2023-04-15T19:41:11.079Z,100032.22
2023-04-15T19:46:13.529Z,100025.09
2023-04-15T19:51:15.910Z,100033.03
2023-04-15T19:56:18.054Z,100035.50
2023-04-15T20:01:21.035Z,100042.38
2023-04-15T20:06:23.414Z,100037.72
2023-04-15T20:12:09.929Z,100044.03
2023-04-15T20:16:51.532Z,100058.56
2023-04-15T20:21:54.444Z,100056.38
2023-04-15T20:26:57.675Z,100052.56
2023-04-15T20:31:59.806Z,100055.28
2023-04-15T20:37:02.162Z,100061.03
2023-04-15T20:42:10.883Z,100069.81
2023-04-15T20:47:13.921Z,100069.56
2023-04-15T20:52:16.406Z,100070.09
2023-04-15T20:57:20.305Z,100074.75
2023-04-15T21:02:23.760Z,100080.78
2023-04-15T21:07:26.211Z,100091.50
2023-04-15T21:12:31.329Z,100094.22
2023-04-15T21:17:35.362Z,100101.34
2023-04-15T21:22:37.687Z,100093.34
2023-04-15T21:27:39.828Z,100111.13
2023-04-15T21:32:42.011Z,100122.34
2023-04-15T21:37:44.222Z,100129.16
2023-04-15T21:42:47.496Z,100130.22
2023-04-15T21:48:00.862Z,100138.66
2023-04-15T21:53:09.913Z,100135.87
2023-04-15T21:58:13.461Z,100141.34
2023-04-15T22:03:16.613Z,100135.59
2023-04-15T22:08:18.915Z,100146.56
2023-04-15T22:13:21.174Z,100147.94
2023-04-15T22:18:23.443Z,100150.97
2023-04-15T22:23:25.585Z,100154.81
2023-04-15T22:28:27.830Z,100159.78
2023-04-15T22:33:30.057Z,100159.25
2023-04-15T22:38:32.296Z,100165.25
2023-04-15T22:43:34.456Z,100162.00
2023-04-15T22:48:36.757Z,100163.09
2023-04-15T22:53:38.911Z,100164.78
2023-04-15T22:58:41.140Z,100168.91
2023-04-15T23:03:56.077Z,100171.91
2023-04-15T23:09:06.935Z,100166.94
2023-04-15T23:14:09.176Z,100169.16
2023-04-15T23:19:11.709Z,100175.97
2023-04-15T23:24:14.173Z,100173.75
2023-04-15T23:29:16.367Z,100168.47
2023-04-15T23:34:18.546Z,100173.13
2023-04-15T23:39:20.834Z,100178.28
2023-04-15T23:44:23.383Z,100174.97
2023-04-15T23:49:25.695Z,100187.03
2023-04-15T23:54:27.844Z,100192.41
2023-04-15T23:59:30.035Z,100185.94
